createdAt,value
2018-10-12T00:00:24.048Z,19.13
2018-10-12T00:02:53.790Z,19.11
2018-10-12T00:05:23.314Z,19.08
2018-10-12T00:07:53.033Z,19.05
2018-10-12T00:10:22.590Z,19.08
2018-10-12T00:12:52.251Z,19.13
2018-10-12T00:15:21.980Z,19.00
2018-10-12T00:17:51.435Z,19.01
2018-10-12T00:20:21.222Z,19.03
2018-10-12T00:22:50.659Z,19.09
2018-10-12T00:25:20.311Z,19.03
2018-10-12T00:27:50.193Z,18.96
2018-10-12T00:30:19.737Z,18.93
2018-10-12T00:32:49.317Z,18.85
2018-10-12T00:35:19.183Z,18.83
2018-10-12T00:37:48.783Z,18.87
2018-10-12T00:40:18.311Z,18.90
2018-10-12T00:42:49.378Z,18.82
2018-10-12T00:45:19.193Z,18.86
2018-10-12T00:47:54.200Z,18.87
2018-10-12T00:50:23.687Z,18.91
2018-10-12T00:52:53.287Z,18.84
2018-10-12T00:55:24.321Z,18.80
2018-10-12T00:57:54.173Z,18.71
2018-10-12T01:00:24.662Z,18.70
2018-10-12T01:02:54.296Z,18.68
2018-10-12T01:05:24.199Z,18.69
2018-10-12T01:07:53.795Z,18.72
2018-10-12T01:10:23.325Z,18.73
2018-10-12T01:12:53.186Z,18.71
2018-10-12T01:15:22.792Z,18.68
2018-10-12T01:17:52.302Z,18.65
2018-10-12T01:20:22.179Z,18.64
2018-10-12T01:22:51.789Z,18.65
2018-10-12T01:25:21.352Z,18.60
2018-10-12T01:27:51.180Z,18.48
2018-10-12T01:30:21.323Z,18.51
2018-10-12T01:32:56.413Z,18.50
2018-10-12T01:35:26.184Z,18.42
2018-10-12T01:37:56.001Z,18.28
2018-10-12T01:40:25.425Z,18.31
2018-10-12T01:42:55.394Z,18.39
2018-10-12T01:45:25.573Z,18.29
2018-10-12T01:47:55.341Z,18.21
2018-10-12T01:50:25.187Z,18.12
2018-10-12T01:52:54.968Z,18.14
2018-10-12T01:55:24.356Z,18.14
2018-10-12T01:57:54.197Z,17.98
2018-10-12T02:00:24.310Z,18.01
2018-10-12T02:02:54.174Z,18.02
2018-10-12T02:05:23.992Z,17.94
2018-10-12T02:07:53.434Z,17.94
2018-10-12T02:10:23.183Z,17.95
2018-10-12T02:12:52.972Z,17.94
2018-10-12T02:15:22.386Z,17.98
2018-10-12T02:17:52.183Z,18.08
2018-10-12T02:20:21.785Z,18.05
2018-10-12T02:22:51.314Z,17.98
2018-10-12T02:25:21.152Z,17.96
2018-10-12T02:27:50.787Z,17.95
2018-10-12T02:30:20.521Z,17.91
2018-10-12T02:32:50.317Z,17.91
2018-10-12T02:35:20.115Z,17.91
2018-10-12T02:37:49.793Z,17.85
2018-10-12T02:40:19.798Z,17.79
2018-10-12T02:42:49.319Z,17.84
2018-10-12T02:45:19.177Z,17.85
2018-10-12T02:47:48.679Z,17.86
2018-10-12T02:50:18.323Z,17.85
2018-10-12T02:52:47.995Z,17.88
2018-10-12T02:55:17.986Z,17.80
2018-10-12T02:57:47.386Z,17.82
2018-10-12T03:00:17.329Z,17.81
2018-10-12T03:02:47.182Z,17.80
2018-10-12T03:05:16.666Z,17.78
2018-10-12T03:07:46.299Z,17.75
2018-10-12T03:10:16.153Z,17.73
2018-10-12T03:12:45.733Z,17.76
2018-10-12T03:15:15.321Z,17.74
2018-10-12T03:17:45.187Z,17.80
2018-10-12T03:20:14.715Z,17.78
2018-10-12T03:22:44.311Z,17.74
2018-10-12T03:25:14.072Z,17.71
2018-10-12T03:27:55.239Z,17.67
2018-10-12T03:30:25.399Z,17.71
2018-10-12T03:32:55.324Z,17.73
2018-10-12T03:35:25.293Z,17.64
2018-10-12T03:37:55.227Z,17.63
2018-10-12T03:40:25.194Z,17.57
2018-10-12T03:42:55.199Z,17.57
2018-10-12T03:45:25.329Z,17.63
2018-10-12T03:47:55.318Z,17.65
2018-10-12T03:50:26.201Z,17.61
2018-10-12T03:52:55.797Z,17.67
2018-10-12T03:55:25.301Z,17.67
2018-10-12T03:57:55.182Z,17.66
2018-10-12T04:00:24.789Z,17.68
2018-10-12T04:02:54.359Z,17.68
2018-10-12T04:05:24.269Z,17.64
2018-10-12T04:07:53.970Z,17.63
2018-10-12T04:10:23.428Z,17.63
2018-10-12T04:12:53.280Z,17.66
2018-10-12T04:15:23.176Z,17.66
2018-10-12T04:17:52.950Z,17.68
2018-10-12T04:20:22.422Z,17.68
2018-10-12T04:22:52.218Z,17.71
2018-10-12T04:25:21.975Z,17.70
2018-10-12T04:27:51.416Z,17.75
2018-10-12T04:30:21.200Z,17.69
2018-10-12T04:32:51.062Z,17.70
2018-10-12T04:35:20.671Z,17.69
2018-10-12T04:37:50.309Z,17.70
2018-10-12T04:41:31.565Z,17.70
2018-10-12T04:44:02.657Z,17.59
2018-10-12T04:46:41.324Z,17.62
2018-10-12T04:49:12.329Z,17.54
2018-10-12T04:51:45.446Z,17.57
2018-10-12T04:54:15.416Z,17.61
2018-10-12T04:56:46.162Z,17.53
2018-10-12T04:59:15.793Z,17.54
2018-10-12T05:01:45.661Z,17.48
2018-10-12T05:04:15.359Z,17.44
2018-10-12T05:06:45.193Z,17.45
2018-10-12T05:09:15.509Z,17.48
2018-10-12T05:11:45.407Z,17.46
2018-10-12T05:14:15.321Z,17.49
2018-10-12T05:16:45.310Z,17.50
2018-10-12T05:19:15.319Z,17.51
2018-10-12T05:21:45.336Z,17.49
2018-10-12T05:24:15.374Z,17.49
2018-10-12T05:26:45.330Z,17.52
2018-10-12T05:32:08.554Z,17.52
2018-10-12T05:34:38.440Z,17.52
2018-10-12T05:37:08.367Z,17.58
2018-10-12T05:39:38.380Z,17.61
2018-10-12T05:42:08.519Z,17.68
2018-10-12T05:44:38.408Z,17.72
2018-10-12T05:47:08.381Z,17.73
2018-10-12T05:50:05.315Z,17.78
2018-10-12T05:52:35.516Z,17.77
2018-10-12T05:55:05.329Z,17.78
2018-10-12T05:57:38.333Z,17.81
2018-10-12T06:00:08.784Z,17.85
2018-10-12T06:02:38.477Z,17.95
2018-10-12T06:05:09.206Z,18.06
2018-10-12T06:07:39.486Z,18.14
2018-10-12T06:10:12.947Z,18.21
2018-10-12T06:12:43.218Z,18.23
2018-10-12T06:15:13.297Z,18.29
2018-10-12T06:17:43.326Z,18.31
2018-10-12T06:20:13.329Z,18.39
2018-10-12T06:22:43.371Z,18.38
2018-10-12T06:25:13.322Z,18.43
2018-10-12T06:27:43.363Z,18.46
2018-10-12T06:30:13.517Z,18.50
2018-10-12T06:32:43.392Z,18.59
2018-10-12T06:35:13.359Z,18.72
2018-10-12T06:37:43.318Z,18.83
2018-10-12T06:40:13.320Z,18.96
2018-10-12T06:42:43.783Z,19.03
2018-10-12T06:45:14.166Z,19.14
2018-10-12T06:47:44.321Z,19.26
2018-10-12T06:50:14.319Z,19.31
2018-10-12T06:52:44.402Z,19.35
2018-10-12T06:55:15.328Z,19.44
2018-10-12T06:57:45.324Z,19.58
2018-10-12T07:00:15.336Z,19.71
2018-10-12T07:02:46.035Z,19.88
2018-10-12T07:05:16.326Z,20.12
2018-10-12T07:07:46.555Z,20.30
2018-10-12T07:10:16.425Z,20.56
2018-10-12T07:12:46.332Z,20.68
2018-10-12T07:15:16.330Z,20.77
2018-10-12T07:17:46.370Z,20.89
2018-10-12T07:20:16.328Z,21.16
2018-10-12T07:22:46.394Z,21.43
2018-10-12T07:25:16.349Z,21.84
2018-10-12T07:27:46.336Z,22.48
2018-10-12T07:30:16.336Z,22.49
2018-10-12T07:32:46.318Z,22.50
2018-10-12T07:35:16.337Z,22.55
2018-10-12T07:37:46.433Z,22.66
2018-10-12T07:40:16.404Z,23.06
2018-10-12T07:42:46.311Z,23.32
2018-10-12T07:45:16.332Z,23.60
2018-10-12T07:47:46.337Z,24.09
2018-10-12T07:50:17.356Z,24.49
2018-10-12T07:52:47.335Z,24.39
2018-10-12T07:55:17.325Z,24.61
2018-10-12T07:57:47.329Z,24.87
2018-10-12T08:00:17.380Z,25.61
2018-10-12T08:02:47.351Z,25.17
2018-10-12T08:05:17.337Z,24.95
2018-10-12T08:07:47.333Z,24.44
2018-10-12T08:10:17.373Z,24.15
2018-10-12T08:12:47.326Z,24.15
2018-10-12T08:15:17.318Z,24.14
2018-10-12T08:17:47.423Z,24.05
2018-10-12T08:20:17.458Z,24.10
2018-10-12T08:22:47.363Z,24.18
2018-10-12T08:25:17.349Z,24.18
2018-10-12T08:27:47.498Z,24.33
2018-10-12T08:30:17.324Z,24.53
2018-10-12T08:32:47.429Z,24.95
2018-10-12T08:35:17.343Z,25.35
2018-10-12T08:37:47.331Z,25.43
2018-10-12T08:40:17.327Z,26.03
2018-10-12T08:42:47.337Z,26.12
2018-10-12T08:45:17.375Z,26.72
2018-10-12T08:47:47.330Z,26.68
2018-10-12T08:50:17.337Z,27.05
2018-10-12T08:52:47.338Z,26.57
2018-10-12T08:55:17.395Z,26.25
2018-10-12T08:57:47.497Z,26.28
2018-10-12T09:00:17.332Z,26.84
2018-10-12T09:02:47.398Z,26.86
2018-10-12T09:05:17.329Z,26.74
2018-10-12T09:07:47.333Z,26.69
2018-10-12T09:10:17.348Z,26.59
2018-10-12T09:12:47.330Z,26.64
2018-10-12T09:15:17.333Z,26.55
2018-10-12T09:17:47.398Z,26.49
2018-10-12T09:20:17.425Z,26.60
2018-10-12T09:22:47.427Z,26.74
2018-10-12T09:25:19.324Z,26.63
2018-10-12T09:27:49.372Z,26.42
2018-10-12T09:30:19.565Z,26.53
2018-10-12T09:32:49.498Z,26.55
2018-10-12T09:35:19.329Z,26.78
2018-10-12T09:37:49.335Z,27.21
2018-10-12T09:40:19.357Z,27.42
2018-10-12T09:42:49.326Z,27.91
2018-10-12T09:45:19.329Z,27.85
2018-10-12T09:47:49.337Z,27.73
2018-10-12T09:50:19.370Z,27.81
2018-10-12T09:52:49.331Z,27.74
2018-10-12T09:55:19.585Z,27.63
2018-10-12T09:57:49.298Z,27.70
2018-10-12T10:00:24.542Z,27.57
2018-10-12T10:03:03.442Z,27.39
2018-10-12T10:05:33.358Z,27.74
2018-10-12T10:08:03.414Z,28.07
2018-10-12T10:10:33.367Z,29.01
2018-10-12T10:13:03.337Z,29.40
2018-10-12T10:15:33.399Z,29.05
2018-10-12T10:18:03.377Z,28.59
2018-10-12T10:20:33.347Z,28.75
2018-10-12T10:23:03.338Z,28.58
2018-10-12T10:25:33.384Z,28.50
2018-10-12T10:28:03.317Z,28.51
2018-10-12T10:30:33.345Z,28.60
2018-10-12T10:33:03.328Z,28.36
2018-10-12T10:35:33.335Z,28.59
2018-10-12T10:38:03.423Z,28.73
2018-10-12T10:40:33.338Z,28.88
2018-10-12T10:43:03.335Z,28.40
2018-10-12T10:45:33.361Z,28.02
2018-10-12T10:48:03.336Z,27.81
2018-10-12T10:50:33.333Z,27.91
2018-10-12T10:53:03.385Z,28.03
2018-10-12T10:55:33.330Z,28.25
2018-10-12T10:58:03.330Z,28.23
2018-10-12T11:00:33.374Z,28.12
2018-10-12T11:03:03.327Z,28.15
2018-10-12T11:05:33.390Z,28.21
2018-10-12T11:08:03.314Z,28.11
2018-10-12T11:10:33.351Z,28.20
2018-10-12T11:13:04.042Z,27.95
2018-10-12T11:15:34.330Z,27.81
2018-10-12T11:18:04.326Z,28.10
2018-10-12T11:20:34.343Z,28.12
2018-10-12T11:23:04.337Z,28.09
2018-10-12T11:25:34.325Z,28.05
2018-10-12T11:28:04.505Z,28.08
2018-10-12T11:30:34.372Z,28.18
2018-10-12T11:33:04.478Z,28.25
2018-10-12T11:35:34.494Z,28.34
2018-10-12T11:38:04.336Z,28.39
2018-10-12T11:40:34.344Z,28.55
2018-10-12T11:43:15.206Z,28.44
2018-10-12T11:45:45.377Z,28.70
2018-10-12T11:48:15.341Z,28.82
2018-10-12T11:50:45.328Z,29.56
2018-10-12T11:53:15.337Z,30.81
2018-10-12T11:55:45.327Z,31.91
2018-10-12T11:58:15.355Z,34.08
2018-10-12T12:00:45.382Z,34.91
2018-10-12T12:03:15.326Z,34.82
2018-10-12T12:05:45.299Z,35.69
2018-10-12T12:08:15.329Z,37.36
2018-10-12T12:10:45.012Z,38.96
2018-10-12T12:13:15.222Z,40.36
2018-10-12T12:15:43.907Z,41.12
2018-10-12T12:18:13.323Z,41.04
2018-10-12T12:20:43.177Z,41.65
2018-10-12T12:23:12.040Z,42.88
2018-10-12T12:25:42.186Z,43.36
2018-10-12T12:28:10.971Z,43.68
2018-10-12T12:30:40.484Z,43.89
2018-10-12T12:33:10.233Z,44.17
2018-10-12T12:35:39.339Z,44.53
2018-10-12T12:38:09.212Z,45.21
2018-10-12T12:40:38.088Z,45.17
2018-10-12T12:43:07.680Z,45.74
2018-10-12T12:45:37.375Z,45.88
2018-10-12T12:48:07.299Z,45.43
2018-10-12T12:50:37.174Z,46.09
2018-10-12T12:53:06.048Z,45.84
2018-10-12T12:55:36.019Z,46.00
2018-10-12T12:58:05.541Z,45.85
2018-10-12T13:00:35.333Z,45.32
2018-10-12T13:03:05.073Z,45.35
2018-10-12T13:05:33.870Z,45.82
2018-10-12T13:08:04.201Z,46.18
2018-10-12T13:10:32.947Z,45.53
2018-10-12T13:13:02.363Z,44.64
2018-10-12T13:15:32.181Z,45.14
2018-10-12T13:18:00.929Z,45.72
2018-10-12T13:20:30.363Z,45.52
2018-10-12T13:23:00.053Z,45.62
2018-10-12T13:25:30.016Z,46.03
2018-10-12T13:27:59.797Z,45.92
2018-10-12T13:30:29.338Z,45.82
2018-10-12T13:32:59.244Z,45.07
2018-10-12T13:35:28.207Z,44.06
2018-10-12T13:37:56.885Z,43.28
2018-10-12T13:40:26.334Z,43.24
2018-10-12T13:42:56.174Z,43.02
2018-10-12T13:45:24.920Z,41.92
2018-10-12T13:47:54.397Z,39.76
2018-10-12T13:50:24.325Z,38.25
2018-10-12T13:52:54.060Z,37.45
2018-10-12T13:55:24.290Z,36.40
2018-10-12T13:57:53.687Z,34.96
2018-10-12T14:00:25.404Z,34.26
2018-10-12T14:02:55.335Z,33.95
2018-10-12T14:05:25.325Z,33.59
2018-10-12T14:07:55.322Z,33.04
2018-10-12T14:10:25.424Z,32.50
2018-10-12T14:12:55.321Z,32.21
2018-10-12T14:15:25.319Z,31.87
2018-10-12T14:17:55.409Z,31.46
2018-10-12T14:20:25.330Z,31.19
2018-10-12T14:22:55.330Z,30.90
2018-10-12T14:25:25.328Z,30.75
2018-10-12T14:27:55.441Z,30.62
2018-10-12T14:30:25.312Z,30.57
2018-10-12T14:32:55.295Z,30.54
2018-10-12T14:35:25.267Z,30.42
2018-10-12T14:37:53.990Z,30.37
2018-10-12T14:40:24.123Z,30.22
2018-10-12T14:42:54.237Z,30.06
2018-10-12T14:45:24.257Z,30.02
2018-10-12T14:47:54.200Z,30.01
2018-10-12T14:50:22.705Z,29.87
2018-10-12T14:52:52.276Z,29.88
2018-10-12T14:55:22.325Z,29.81
2018-10-12T14:57:52.244Z,29.73
2018-10-12T15:00:21.025Z,29.69
2018-10-12T15:02:50.797Z,29.60
2018-10-12T15:05:20.375Z,29.42
2018-10-12T15:07:50.165Z,29.38
2018-10-12T15:10:19.794Z,29.40
2018-10-12T15:12:49.312Z,29.60
2018-10-12T15:15:22.654Z,30.15
2018-10-12T15:17:53.227Z,29.94
2018-10-12T15:20:22.052Z,29.21
2018-10-12T15:22:51.529Z,28.75
2018-10-12T15:25:21.709Z,28.41
2018-10-12T15:27:51.443Z,28.11
2018-10-12T15:30:21.332Z,27.79
2018-10-12T15:32:51.195Z,27.58
2018-10-12T15:35:20.131Z,27.39
2018-10-12T15:37:50.317Z,27.22
2018-10-12T15:40:20.233Z,27.12
2018-10-12T15:42:48.524Z,26.95
2018-10-12T15:45:18.324Z,26.74
2018-10-12T15:47:48.212Z,26.65
2018-10-12T15:50:17.484Z,26.52
2018-10-12T15:52:47.188Z,26.42
2018-10-12T15:55:16.982Z,26.29
2018-10-12T15:57:46.449Z,26.17
2018-10-12T16:00:16.218Z,26.07
2018-10-12T16:02:44.574Z,25.96
2018-10-12T16:05:14.284Z,25.89
2018-10-12T16:07:44.196Z,25.80
2018-10-12T16:10:12.336Z,25.69
2018-10-12T16:12:41.519Z,25.58
2018-10-12T16:15:11.785Z,25.44
2018-10-12T16:17:41.326Z,25.31
2018-10-12T16:20:11.182Z,25.17
2018-10-12T16:22:40.812Z,25.15
2018-10-12T16:25:21.315Z,25.11
2018-10-12T16:27:51.022Z,24.98
2018-10-12T16:30:20.390Z,24.88
2018-10-12T16:32:50.203Z,24.76
2018-10-12T16:35:19.339Z,24.72
2018-10-12T16:37:49.160Z,24.64
2018-10-12T16:40:18.793Z,24.59
2018-10-12T16:42:48.310Z,24.48
2018-10-12T16:45:17.971Z,24.45
2018-10-12T16:47:47.353Z,24.36
2018-10-12T16:50:17.309Z,24.27
2018-10-12T16:52:47.180Z,24.24
2018-10-12T16:55:16.745Z,24.21
2018-10-12T16:57:46.309Z,24.13
2018-10-12T17:00:15.979Z,24.05
2018-10-12T17:02:45.342Z,23.98
2018-10-12T17:05:15.201Z,23.88
2018-10-12T17:07:44.742Z,23.92
2018-10-12T17:10:14.305Z,23.88
2018-10-12T17:12:44.081Z,23.82
2018-10-12T17:15:14.237Z,23.72
2018-10-12T17:17:43.791Z,23.67
2018-10-12T17:20:13.321Z,23.56
2018-10-12T17:22:43.173Z,23.49
2018-10-12T17:25:13.196Z,23.38
2018-10-12T17:27:43.008Z,23.25
2018-10-12T17:30:12.443Z,23.18
2018-10-12T17:32:42.323Z,23.13
2018-10-12T17:35:12.194Z,23.01
2018-10-12T17:37:41.786Z,22.92
2018-10-12T17:40:11.580Z,22.83
2018-10-12T17:42:41.234Z,22.74
2018-10-12T17:45:10.311Z,22.71
2018-10-12T17:47:40.180Z,22.65
2018-10-12T17:50:09.785Z,22.59
2018-10-12T17:52:39.298Z,22.52
2018-10-12T17:55:09.196Z,22.50
2018-10-12T17:57:38.677Z,22.46
2018-10-12T18:00:10.111Z,22.40
2018-10-12T18:02:40.193Z,22.34
2018-10-12T18:07:18.021Z,22.22
2018-10-12T18:09:48.385Z,22.22
2018-10-12T18:12:18.193Z,22.23
2018-10-12T18:14:47.800Z,22.24
2018-10-12T18:17:17.328Z,22.21
2018-10-12T18:19:47.319Z,22.21
2018-10-12T18:22:17.263Z,22.13
2018-10-12T18:24:46.646Z,22.19
2018-10-12T18:27:16.310Z,22.15
2018-10-12T18:29:46.197Z,22.15
2018-10-12T18:32:16.315Z,22.19
2018-10-12T18:34:46.223Z,22.17
2018-10-12T18:37:16.248Z,22.17
2018-10-12T18:39:45.920Z,22.16
2018-10-12T18:42:16.231Z,22.06
2018-10-12T18:44:46.199Z,22.02
2018-10-12T18:47:16.073Z,21.92
2018-10-12T18:49:45.800Z,21.87
2018-10-12T18:52:15.308Z,21.84
2018-10-12T18:54:45.187Z,21.85
2018-10-12T18:57:15.199Z,21.77
2018-10-12T18:59:45.243Z,21.78
2018-10-12T19:02:35.358Z,21.74
2018-10-12T19:05:06.364Z,21.72
2018-10-12T19:10:05.369Z,21.57
2018-10-12T19:12:34.861Z,21.49
2018-10-12T19:15:04.368Z,21.38
2018-10-12T19:17:34.313Z,21.29
2018-10-12T19:20:04.374Z,21.16
2018-10-12T19:22:34.235Z,21.11
2018-10-12T19:25:04.224Z,21.18
2018-10-12T19:27:33.989Z,21.12
2018-10-12T19:30:03.677Z,21.15
2018-10-12T19:32:33.257Z,21.21
2018-10-12T19:35:02.412Z,21.24
2018-10-12T19:37:32.586Z,21.14
2018-10-12T19:42:22.316Z,20.91
2018-10-12T19:44:52.264Z,20.87
2018-10-12T19:47:22.305Z,20.84
2018-10-12T19:49:52.246Z,20.79
2018-10-12T19:52:21.280Z,20.77
2018-10-12T19:54:51.061Z,20.76
2018-10-12T19:57:21.345Z,20.73
2018-10-12T19:59:51.459Z,20.70
2018-10-12T20:02:21.316Z,20.78
2018-10-12T20:04:51.323Z,20.73
2018-10-12T20:07:21.330Z,20.68
2018-10-12T20:09:51.341Z,20.60
2018-10-12T20:12:21.332Z,20.53
2018-10-12T20:14:51.172Z,20.48
2018-10-12T20:17:22.237Z,20.39
2018-10-12T20:19:52.316Z,20.33
2018-10-12T20:22:22.317Z,20.32
2018-10-12T20:24:52.254Z,20.31
2018-10-12T20:27:20.842Z,20.27
2018-10-12T20:29:50.398Z,20.25
2018-10-12T20:32:20.341Z,20.16
2018-10-12T20:34:50.312Z,20.15
2018-10-12T20:37:20.215Z,20.14
2018-10-12T20:39:50.076Z,20.20
2018-10-12T20:42:20.028Z,20.25
2018-10-12T20:44:49.795Z,20.29
2018-10-12T20:47:19.543Z,20.35
2018-10-12T20:49:49.226Z,20.31
2018-10-12T20:52:19.262Z,20.24
2018-10-12T20:54:49.358Z,20.23
2018-10-12T20:57:19.241Z,20.21
2018-10-12T20:59:49.325Z,20.23
2018-10-12T21:02:19.200Z,20.28
2018-10-12T21:04:50.524Z,20.29
2018-10-12T21:07:20.407Z,20.27
2018-10-12T21:09:50.208Z,20.29
2018-10-12T21:12:20.431Z,20.30
2018-10-12T21:14:50.241Z,20.28
2018-10-12T21:17:20.194Z,20.28
2018-10-12T21:19:49.813Z,20.30
2018-10-12T21:22:19.493Z,20.29
2018-10-12T21:24:49.328Z,20.24
2018-10-12T21:27:19.282Z,20.30
2018-10-12T21:29:49.260Z,20.30
2018-10-12T21:32:18.336Z,20.29
2018-10-12T21:34:48.328Z,20.30
2018-10-12T21:37:18.248Z,20.33
2018-10-12T21:39:48.485Z,20.31
2018-10-12T21:42:18.327Z,20.34
2018-10-12T21:44:48.211Z,20.35
2018-10-12T21:47:18.526Z,20.39
2018-10-12T21:49:48.466Z,20.40
2018-10-12T21:52:18.316Z,20.44
2018-10-12T21:54:48.236Z,20.48
2018-10-12T21:57:18.178Z,20.44
2018-10-12T21:59:48.308Z,20.46
2018-10-12T22:02:18.413Z,20.46
2018-10-12T22:04:48.550Z,20.45
2018-10-12T22:07:18.356Z,20.48
2018-10-12T22:09:48.429Z,20.48
2018-10-12T22:12:18.341Z,20.50
2018-10-12T22:14:48.218Z,20.47
2018-10-12T22:17:18.232Z,20.33
2018-10-12T22:19:47.189Z,20.29
2018-10-12T22:22:17.424Z,20.24
2018-10-12T22:24:47.182Z,20.23
2018-10-12T22:27:17.598Z,20.16
2018-10-12T22:29:49.687Z,20.17
2018-10-12T22:32:20.088Z,20.20
2018-10-12T22:34:50.192Z,20.22
2018-10-12T22:37:19.864Z,20.21
2018-10-12T22:39:49.699Z,20.15
2018-10-12T22:42:19.404Z,20.14
2018-10-12T22:44:49.341Z,20.17
2018-10-12T22:47:19.805Z,20.21
2018-10-12T22:49:49.595Z,20.23
2018-10-12T22:52:19.486Z,20.23
2018-10-12T22:54:49.258Z,20.26
2018-10-12T22:57:18.219Z,20.25
2018-10-12T22:59:48.339Z,20.21
2018-10-12T23:02:18.205Z,20.09
2018-10-12T23:04:48.033Z,20.04
2018-10-12T23:07:17.792Z,19.99
2018-10-12T23:09:48.079Z,19.92
2018-10-12T23:12:21.117Z,19.87
2018-10-12T23:14:51.425Z,19.80
2018-10-12T23:17:21.264Z,19.75
2018-10-12T23:19:51.223Z,19.66
2018-10-12T23:24:43.860Z,19.45
2018-10-12T23:27:14.401Z,19.42
2018-10-12T23:29:44.252Z,19.33
2018-10-12T23:32:14.382Z,19.37
2018-10-12T23:34:49.574Z,19.39
2018-10-12T23:37:19.338Z,19.37
2018-10-12T23:39:49.473Z,19.32
2018-10-12T23:42:19.403Z,19.20
2018-10-12T23:44:49.351Z,19.15
2018-10-12T23:47:19.213Z,19.00
2018-10-12T23:49:49.308Z,18.92
2018-10-12T23:52:20.230Z,18.86
2018-10-12T23:54:49.752Z,18.80
2018-10-12T23:57:19.484Z,18.79
2018-10-12T23:59:49.344Z,18.67
